createdAt,value
2018-05-09T00:00:42.798Z,75.60
2018-05-09T00:01:43.028Z,76.37
2018-05-09T00:02:43.261Z,76.33
2018-05-09T00:03:43.486Z,76.23
2018-05-09T00:04:43.719Z,76.37
2018-05-09T00:05:43.949Z,75.76
2018-05-09T00:06:44.183Z,75.60
2018-05-09T00:07:44.410Z,76.33
2018-05-09T00:08:44.642Z,76.33
2018-05-09T00:09:44.872Z,76.33
2018-05-09T00:10:45.104Z,76.33
2018-05-09T00:11:45.332Z,76.52
2018-05-09T00:12:45.560Z,76.14
2018-05-09T00:13:45.794Z,76.81
2018-05-09T00:14:46.024Z,77.00
2018-05-09T00:15:46.251Z,76.90
2018-05-09T00:16:46.481Z,76.71
2018-05-09T00:17:46.709Z,77.19
2018-05-09T00:18:46.940Z,77.28
2018-05-09T00:19:47.171Z,77.19
2018-05-09T00:20:47.402Z,77.57
2018-05-09T00:21:47.628Z,77.57
2018-05-09T00:22:47.859Z,77.28
2018-05-09T00:23:48.090Z,77.28
2018-05-09T00:24:48.322Z,77.38
2018-05-09T00:25:48.550Z,77.28
2018-05-09T00:26:48.778Z,77.57
2018-05-09T00:27:49.017Z,77.28
2018-05-09T00:28:49.246Z,77.28
2018-05-09T00:29:49.474Z,76.90
2018-05-09T00:30:49.700Z,77.19
2018-05-09T00:31:49.931Z,77.38
2018-05-09T00:32:50.165Z,77.86
2018-05-09T00:33:50.396Z,77.95
2018-05-09T00:34:50.624Z,78.05
2018-05-09T00:35:50.861Z,77.48
2018-05-09T00:36:51.090Z,77.76
2018-05-09T00:37:51.315Z,78.11
2018-05-09T00:38:51.544Z,77.67
2018-05-09T00:39:51.773Z,77.38
2018-05-09T00:40:52.004Z,78.20
2018-05-09T00:41:52.236Z,77.82
2018-05-09T00:42:52.467Z,78.30
2018-05-09T00:43:52.705Z,77.72
2018-05-09T00:44:52.933Z,77.72
2018-05-09T00:45:53.179Z,77.76
2018-05-09T00:46:53.397Z,78.11
2018-05-09T00:47:53.629Z,78.20
2018-05-09T00:48:53.856Z,78.39
2018-05-09T00:49:54.088Z,79.44
2018-05-09T00:50:54.317Z,79.35
2018-05-09T00:51:54.549Z,79.25
2018-05-09T00:52:54.790Z,79.16
2018-05-09T00:53:55.003Z,79.54
2018-05-09T00:54:55.223Z,79.44
2018-05-09T00:55:55.457Z,79.73
2018-05-09T00:56:55.682Z,79.93
2018-05-09T00:57:55.911Z,80.02
2018-05-09T00:58:56.152Z,79.93
2018-05-09T00:59:56.363Z,79.54
2018-05-09T01:00:56.592Z,79.54
2018-05-09T01:01:56.811Z,79.73
2018-05-09T01:02:57.054Z,79.64
2018-05-09T01:03:57.289Z,80.59
2018-05-09T01:04:57.507Z,80.21
2018-05-09T01:05:57.737Z,80.21
2018-05-09T01:06:57.967Z,80.21
2018-05-09T01:07:58.212Z,80.11
2018-05-09T01:08:58.447Z,79.73
2018-05-09T01:09:58.678Z,79.54
2018-05-09T01:10:58.903Z,80.69
2018-05-09T01:11:59.132Z,79.93
2018-05-09T01:12:59.365Z,80.11
2018-05-09T01:13:59.601Z,79.35
2018-05-09T01:14:59.834Z,80.65
2018-05-09T01:16:00.065Z,80.17
2018-05-09T01:17:00.281Z,80.21
2018-05-09T01:18:00.555Z,80.11
2018-05-09T01:19:00.749Z,80.30
2018-05-09T01:20:01.014Z,80.59
2018-05-09T01:21:01.191Z,80.30
2018-05-09T01:22:01.425Z,80.21
2018-05-09T01:23:01.648Z,79.88
2018-05-09T01:24:01.872Z,80.17
2018-05-09T01:25:02.102Z,80.30
2018-05-09T01:26:02.331Z,80.46
2018-05-09T01:27:02.559Z,80.74
2018-05-09T01:28:02.793Z,79.98
2018-05-09T01:29:03.009Z,80.65
2018-05-09T01:30:03.231Z,80.46
2018-05-09T01:31:03.469Z,81.13
2018-05-09T01:32:03.691Z,81.03
2018-05-09T01:33:03.936Z,81.22
2018-05-09T01:34:04.161Z,81.03
2018-05-09T01:35:04.382Z,81.22
2018-05-09T01:36:04.616Z,81.13
2018-05-09T01:37:04.845Z,80.84
2018-05-09T01:38:05.075Z,80.74
2018-05-09T01:39:05.309Z,81.22
2018-05-09T01:40:05.532Z,81.03
2018-05-09T01:41:05.757Z,81.03
2018-05-09T01:42:05.989Z,81.60
2018-05-09T01:43:06.221Z,81.51
2018-05-09T01:44:06.446Z,81.60
2018-05-09T01:45:06.677Z,81.89
2018-05-09T01:46:06.908Z,81.89
2018-05-09T01:47:07.133Z,81.22
2018-05-09T01:48:07.365Z,80.93
2018-05-09T01:49:07.602Z,81.22
2018-05-09T01:50:07.829Z,80.84
2018-05-09T01:51:08.056Z,81.13
2018-05-09T01:52:08.288Z,80.99
2018-05-09T01:53:08.517Z,81.03
2018-05-09T01:54:08.750Z,80.99
2018-05-09T01:55:08.977Z,81.56
2018-05-09T01:56:09.215Z,82.04
2018-05-09T01:57:09.434Z,80.90
2018-05-09T01:58:09.658Z,80.84
2018-05-09T01:59:09.898Z,81.27
2018-05-09T02:00:10.128Z,80.99
2018-05-09T02:01:10.358Z,80.99
2018-05-09T02:02:10.588Z,80.99
2018-05-09T02:03:10.816Z,81.27
2018-05-09T02:04:11.048Z,80.99
2018-05-09T02:05:11.276Z,81.09
2018-05-09T02:06:11.517Z,80.70
2018-05-09T02:07:11.732Z,81.09
2018-05-09T02:08:11.960Z,80.70
2018-05-09T02:09:12.189Z,81.18
2018-05-09T02:10:12.411Z,81.37
2018-05-09T02:11:12.642Z,81.76
2018-05-09T02:12:12.870Z,81.27
2018-05-09T02:13:13.104Z,81.27
2018-05-09T02:14:13.318Z,81.76
2018-05-09T02:15:13.550Z,82.52
2018-05-09T02:16:13.784Z,83.00
2018-05-09T02:17:14.011Z,83.09
2018-05-09T02:18:14.239Z,82.23
2018-05-09T02:19:14.466Z,82.52
2018-05-09T02:20:14.697Z,82.42
2018-05-09T02:21:14.931Z,83.57
2018-05-09T02:22:15.152Z,83.47
2018-05-09T02:23:15.474Z,83.09
2018-05-09T02:24:15.631Z,83.18
2018-05-09T02:25:15.849Z,83.09
2018-05-09T02:26:16.080Z,81.85
2018-05-09T02:27:16.307Z,81.95
2018-05-09T02:28:16.534Z,82.14
2018-05-09T02:29:16.765Z,82.23
2018-05-09T02:30:16.993Z,82.32
2018-05-09T02:31:17.280Z,82.32
2018-05-09T02:32:17.449Z,83.28
2018-05-09T02:33:17.682Z,83.28
2018-05-09T02:34:17.911Z,83.86
2018-05-09T02:35:18.139Z,83.18
2018-05-09T02:36:18.373Z,83.24
2018-05-09T02:37:18.596Z,83.24
2018-05-09T02:38:18.856Z,83.34
2018-05-09T02:39:19.053Z,84.10
2018-05-09T02:40:19.281Z,84.33
2018-05-09T02:41:19.508Z,84.39
2018-05-09T02:42:19.740Z,84.00
2018-05-09T02:43:19.970Z,84.10
2018-05-09T02:44:20.200Z,84.67
2018-05-09T02:45:20.423Z,84.58
2018-05-09T02:46:20.639Z,84.58
2018-05-09T02:47:20.869Z,84.29
2018-05-09T02:48:21.096Z,84.39
2018-05-09T02:49:21.326Z,84.00
2018-05-09T02:50:21.558Z,84.29
2018-05-09T02:51:21.784Z,85.05
2018-05-09T02:52:22.019Z,84.58
2018-05-09T02:53:22.251Z,85.05
2018-05-09T02:54:22.465Z,84.72
2018-05-09T02:55:22.699Z,85.15
2018-05-09T02:56:22.931Z,84.63
2018-05-09T02:57:23.157Z,84.92
2018-05-09T02:58:23.384Z,85.01
2018-05-09T02:59:23.610Z,84.44
2018-05-09T03:00:23.849Z,84.72
2018-05-09T03:01:24.068Z,85.01
2018-05-09T03:02:24.299Z,84.77
2018-05-09T03:03:24.531Z,84.63
2018-05-09T03:04:24.757Z,84.82
2018-05-09T03:05:24.994Z,84.39
2018-05-09T03:06:25.211Z,84.39
2018-05-09T03:07:25.452Z,84.86
2018-05-09T03:08:25.687Z,85.34
2018-05-09T03:09:25.908Z,84.63
2018-05-09T03:10:26.133Z,84.58
2018-05-09T03:11:26.356Z,84.58
2018-05-09T03:12:26.582Z,84.67
2018-05-09T03:13:26.807Z,84.48
2018-05-09T03:14:27.034Z,84.58
2018-05-09T03:15:27.265Z,84.34
2018-05-09T03:16:27.494Z,84.34
2018-05-09T03:17:27.726Z,84.25
2018-05-09T03:18:27.953Z,84.34
2018-05-09T03:19:28.181Z,84.06
2018-05-09T03:20:28.451Z,84.39
2018-05-09T03:21:28.647Z,84.39
2018-05-09T03:22:28.870Z,83.91
2018-05-09T03:23:29.103Z,83.14
2018-05-09T03:24:29.324Z,83.24
2018-05-09T03:25:29.559Z,84.29
2018-05-09T03:26:29.789Z,84.63
2018-05-09T03:27:30.016Z,84.44
2018-05-09T03:28:30.247Z,84.16
2018-05-09T03:29:30.472Z,84.34
2018-05-09T03:30:30.699Z,83.87
2018-05-09T03:31:30.928Z,84.06
2018-05-09T03:32:31.157Z,84.82
2018-05-09T03:33:31.396Z,84.72
2018-05-09T03:34:31.614Z,85.87
2018-05-09T03:35:31.852Z,85.49
2018-05-09T03:36:32.066Z,85.49
2018-05-09T03:37:32.328Z,85.58
2018-05-09T03:38:32.528Z,85.21
2018-05-09T03:39:32.764Z,85.49
2018-05-09T03:40:32.991Z,85.68
2018-05-09T03:41:33.220Z,85.39
2018-05-09T03:42:33.439Z,85.58
2018-05-09T03:43:33.671Z,85.30
2018-05-09T03:44:33.901Z,85.01
2018-05-09T03:45:34.131Z,84.72
2018-05-09T03:46:34.359Z,84.82
2018-05-09T03:47:34.591Z,84.72
2018-05-09T03:48:34.817Z,85.30
2018-05-09T03:49:35.045Z,85.11
2018-05-09T03:50:35.276Z,85.11
2018-05-09T03:51:35.507Z,84.92
2018-05-09T03:52:35.731Z,85.01
2018-05-09T03:53:35.962Z,85.11
2018-05-09T03:54:36.194Z,85.21
2018-05-09T03:55:36.426Z,84.82
2018-05-09T03:56:36.652Z,84.67
2018-05-09T03:57:36.880Z,84.63
2018-05-09T03:58:37.101Z,84.06
2018-05-09T03:59:37.335Z,84.39
2018-05-09T04:00:37.563Z,84.00
2018-05-09T04:01:37.798Z,84.16
2018-05-09T04:02:38.029Z,84.53
2018-05-09T04:03:38.258Z,84.10
2018-05-09T04:04:38.490Z,84.25
2018-05-09T04:05:38.721Z,84.00
2018-05-09T04:06:38.948Z,84.00
2018-05-09T04:07:39.177Z,83.91
2018-05-09T04:08:39.409Z,84.29
2018-05-09T04:09:39.641Z,83.14
2018-05-09T04:10:39.867Z,82.61
2018-05-09T04:11:40.094Z,81.95
2018-05-09T04:12:40.322Z,81.47
2018-05-09T04:13:40.551Z,81.13
2018-05-09T04:14:40.792Z,80.27
2018-05-09T04:15:41.011Z,79.69
2018-05-09T04:16:41.248Z,79.12
2018-05-09T04:17:41.475Z,78.49
2018-05-09T04:18:41.701Z,78.01
2018-05-09T04:19:41.931Z,77.72
2018-05-09T04:20:42.195Z,77.15
2018-05-09T04:21:42.397Z,77.34
2018-05-09T04:22:42.624Z,76.33
2018-05-09T04:23:42.851Z,76.33
2018-05-09T04:24:43.081Z,76.52
2018-05-09T04:25:43.314Z,75.09
2018-05-09T04:26:43.545Z,74.65
2018-05-09T04:27:43.776Z,74.36
2018-05-09T04:28:44.004Z,74.26
2018-05-09T04:29:44.232Z,73.69
2018-05-09T04:30:44.463Z,73.44
2018-05-09T04:31:44.691Z,72.58
2018-05-09T04:32:44.926Z,71.81
2018-05-09T04:33:45.161Z,71.46
2018-05-09T04:34:45.395Z,71.37
2018-05-09T04:35:45.623Z,70.60
2018-05-09T04:36:45.852Z,70.70
2018-05-09T04:37:46.098Z,71.08
2018-05-09T04:38:46.315Z,70.89
2018-05-09T04:39:46.545Z,70.12
2018-05-09T04:40:46.778Z,69.64
2018-05-09T04:41:47.016Z,69.64
2018-05-09T04:42:47.236Z,68.81
2018-05-09T04:43:47.465Z,69.01
2018-05-09T04:44:47.701Z,67.69
2018-05-09T04:45:47.931Z,66.86
2018-05-09T04:46:48.167Z,66.58
2018-05-09T04:47:48.393Z,65.65
2018-05-09T04:48:48.620Z,64.69
2018-05-09T04:49:48.853Z,64.22
2018-05-09T04:50:49.088Z,62.90
2018-05-09T04:51:49.320Z,63.12
2018-05-09T04:52:49.553Z,61.40
2018-05-09T04:53:49.787Z,61.23
2018-05-09T04:54:50.018Z,61.04
2018-05-09T04:55:50.258Z,60.01
2018-05-09T04:56:50.488Z,59.63
2018-05-09T04:57:50.721Z,59.79
2018-05-09T04:58:50.958Z,59.72
2018-05-09T04:59:51.187Z,59.24
2018-05-09T05:00:51.423Z,58.57
2018-05-09T05:01:51.659Z,57.45
2018-05-09T05:02:51.890Z,57.83
2018-05-09T05:03:52.121Z,57.73
2018-05-09T05:04:52.361Z,56.77
2018-05-09T05:05:52.592Z,56.22
2018-05-09T05:06:52.825Z,55.45
2018-05-09T05:07:53.061Z,55.48
2018-05-09T05:08:53.296Z,54.61
2018-05-09T05:09:53.533Z,53.96
2018-05-09T05:10:53.766Z,53.87
2018-05-09T05:11:54.000Z,53.03
2018-05-09T05:12:54.242Z,52.64
2018-05-09T05:13:54.473Z,52.64
2018-05-09T05:14:54.711Z,53.03
2018-05-09T05:15:54.947Z,52.35
2018-05-09T05:16:55.182Z,51.41
2018-05-09T05:17:55.421Z,49.99
2018-05-09T05:18:55.656Z,50.18
2018-05-09T05:19:55.894Z,50.28
2018-05-09T05:20:56.128Z,50.47
2018-05-09T05:21:56.368Z,50.28
2018-05-09T05:22:56.605Z,49.90
2018-05-09T05:23:56.840Z,50.54
2018-05-09T05:24:57.077Z,50.86
2018-05-09T05:25:57.312Z,50.96
2018-05-09T05:26:57.643Z,50.59
2018-05-09T05:27:57.786Z,49.53
2018-05-09T05:28:58.022Z,49.73
2018-05-09T05:29:58.267Z,49.53
2018-05-09T05:30:58.491Z,48.97
2018-05-09T05:31:58.725Z,49.27
2018-05-09T05:32:58.964Z,47.84
2018-05-09T05:33:59.200Z,47.36
2018-05-09T05:34:59.437Z,47.45
2018-05-09T05:35:59.673Z,46.90
2018-05-09T05:36:59.910Z,46.51
2018-05-09T05:38:00.149Z,45.95
2018-05-09T05:39:00.392Z,45.35
2018-05-09T05:40:00.635Z,45.95
2018-05-09T05:41:00.866Z,45.76
2018-05-09T05:42:01.104Z,45.45
2018-05-09T05:43:01.340Z,45.64
2018-05-09T05:44:01.574Z,45.76
2018-05-09T05:45:01.885Z,44.60
2018-05-09T05:46:02.048Z,46.12
2018-05-09T05:47:02.291Z,45.76
2018-05-09T05:48:02.524Z,44.23
2018-05-09T05:49:02.764Z,43.55
2018-05-09T05:50:03.019Z,45.25
2018-05-09T05:51:03.233Z,45.57
2018-05-09T05:52:03.474Z,45.37
2018-05-09T05:53:03.709Z,44.23
2018-05-09T05:54:03.945Z,44.33
2018-05-09T05:55:04.182Z,44.79
2018-05-09T05:56:04.433Z,45.18
2018-05-09T05:57:04.658Z,44.98
2018-05-09T05:58:04.899Z,44.53
2018-05-09T05:59:05.136Z,43.95
2018-05-09T06:00:05.374Z,43.29
2018-05-09T06:01:05.610Z,43.99
2018-05-09T06:02:05.849Z,42.55
2018-05-09T06:03:06.085Z,42.24
2018-05-09T06:04:06.327Z,41.58
2018-05-09T06:05:06.578Z,41.17
2018-05-09T06:06:06.807Z,43.99
2018-05-09T06:07:07.046Z,43.95
2018-05-09T06:08:07.288Z,42.71
2018-05-09T06:09:07.532Z,43.21
2018-05-09T06:10:07.760Z,42.44
2018-05-09T06:11:08.001Z,41.20
2018-05-09T06:12:08.240Z,41.30
2018-05-09T06:13:08.481Z,40.64
2018-05-09T06:14:08.723Z,40.26
2018-05-09T06:15:08.955Z,40.08
2018-05-09T06:16:09.195Z,41.02
2018-05-09T06:17:09.437Z,41.16
2018-05-09T06:18:09.677Z,39.70
2018-05-09T06:19:09.917Z,38.67
2018-05-09T06:20:10.157Z,37.32
2018-05-09T06:21:10.395Z,37.74
2018-05-09T06:22:10.631Z,36.57
2018-05-09T06:23:10.867Z,36.10
2018-05-09T06:24:11.133Z,35.06
2018-05-09T06:25:11.345Z,34.69
2018-05-09T06:26:11.582Z,34.68
2018-05-09T06:27:11.823Z,34.79
2018-05-09T06:28:12.064Z,34.94
2018-05-09T06:29:12.301Z,35.70
2018-05-09T06:30:12.539Z,35.80
2018-05-09T06:31:12.774Z,36.49
2018-05-09T06:32:13.013Z,36.69
2018-05-09T06:33:13.253Z,36.34
2018-05-09T06:34:13.490Z,36.55
2018-05-09T06:35:13.731Z,37.60
2018-05-09T06:36:14.047Z,36.73
2018-05-09T06:37:14.215Z,37.10
2018-05-09T06:38:14.451Z,37.49
2018-05-09T06:39:14.689Z,38.83
2018-05-09T06:40:14.930Z,37.41
2018-05-09T06:41:15.168Z,37.70
2018-05-09T06:42:15.404Z,37.68
2018-05-09T06:43:15.642Z,38.44
2018-05-09T06:44:15.885Z,39.01
2018-05-09T06:45:16.121Z,39.86
2018-05-09T06:46:16.363Z,40.92
2018-05-09T06:47:16.602Z,41.56
2018-05-09T06:48:16.842Z,41.78
2018-05-09T06:49:17.081Z,41.27
2018-05-09T06:50:17.318Z,41.95
2018-05-09T06:51:17.562Z,42.80
2018-05-09T06:52:17.800Z,43.19
2018-05-09T06:53:18.029Z,43.95
2018-05-09T06:54:18.263Z,44.79
2018-05-09T06:55:18.502Z,46.44
2018-05-09T06:56:18.739Z,45.28
2018-05-09T06:57:18.976Z,45.16
2018-05-09T06:58:19.212Z,46.32
2018-05-09T06:59:19.454Z,45.45
2018-05-09T07:00:19.701Z,45.86
2018-05-09T07:01:19.915Z,46.61
2018-05-09T07:02:20.163Z,47.16
2018-05-09T07:03:20.400Z,48.01
2018-05-09T07:04:20.640Z,48.59
2018-05-09T07:05:20.875Z,50.81
2018-05-09T07:06:21.169Z,47.70
2018-05-09T07:07:21.352Z,48.18
2018-05-09T07:08:21.589Z,47.89
2018-05-09T07:09:21.827Z,48.06
2018-05-09T07:10:22.067Z,48.74
2018-05-09T07:11:22.305Z,49.60
2018-05-09T07:12:22.540Z,49.12
2018-05-09T07:13:22.781Z,49.48
2018-05-09T07:14:23.013Z,50.90
2018-05-09T07:15:23.254Z,50.26
2018-05-09T07:16:23.486Z,51.22
2018-05-09T07:17:23.723Z,51.68
2018-05-09T07:18:23.960Z,51.32
2018-05-09T07:19:24.196Z,51.68
2018-05-09T07:20:24.439Z,52.06
2018-05-09T07:21:24.671Z,53.03
2018-05-09T07:22:24.899Z,53.00
2018-05-09T07:23:25.127Z,53.19
2018-05-09T07:24:25.367Z,53.41
2018-05-09T07:25:25.606Z,52.73
2018-05-09T07:26:25.844Z,52.73
2018-05-09T07:27:26.081Z,51.20
2018-05-09T07:28:26.316Z,52.25
2018-05-09T07:29:26.554Z,52.06
2018-05-09T07:30:26.785Z,53.03
2018-05-09T07:31:27.022Z,51.87
2018-05-09T07:32:27.258Z,51.84
2018-05-09T07:33:27.493Z,52.73
2018-05-09T07:34:27.729Z,52.45
2018-05-09T07:35:27.982Z,52.76
2018-05-09T07:36:28.200Z,52.37
2018-05-09T07:37:28.440Z,52.09
2018-05-09T07:38:28.672Z,53.63
2018-05-09T07:39:28.910Z,52.47
2018-05-09T07:40:29.146Z,51.25
2018-05-09T07:41:29.382Z,51.63
2018-05-09T07:42:29.617Z,51.63
2018-05-09T07:43:29.852Z,52.40
2018-05-09T07:44:30.088Z,50.98
2018-05-09T07:45:30.324Z,50.59
2018-05-09T07:46:30.562Z,50.86
2018-05-09T07:47:30.807Z,50.76
2018-05-09T07:48:31.033Z,51.73
2018-05-09T07:49:31.265Z,52.28
2018-05-09T07:50:31.501Z,52.86
2018-05-09T07:51:31.736Z,53.05
2018-05-09T07:52:31.972Z,52.86
2018-05-09T07:53:32.214Z,51.44
2018-05-09T07:54:32.445Z,51.73
2018-05-09T07:55:32.687Z,52.98
2018-05-09T07:56:32.912Z,52.50
2018-05-09T07:57:33.149Z,51.63
2018-05-09T07:58:33.401Z,51.82
2018-05-09T07:59:33.614Z,52.40
2018-05-09T08:00:33.850Z,52.14
2018-05-09T08:01:34.090Z,52.04
2018-05-09T08:02:34.341Z,52.04
2018-05-09T08:03:34.567Z,51.65
2018-05-09T08:04:34.795Z,51.39
2018-05-09T08:05:35.036Z,51.20
2018-05-09T08:06:35.275Z,51.20
2018-05-09T08:07:35.499Z,52.17
2018-05-09T08:08:35.726Z,51.78
2018-05-09T08:09:35.962Z,52.07
2018-05-09T08:10:36.263Z,50.71
2018-05-09T08:11:36.436Z,51.20
2018-05-09T08:12:36.658Z,50.81
2018-05-09T08:13:36.917Z,51.01
2018-05-09T08:14:37.182Z,51.29
2018-05-09T08:15:37.397Z,51.20
2018-05-09T08:16:37.631Z,51.20
2018-05-09T08:17:37.874Z,52.07
2018-05-09T08:18:38.111Z,52.65
2018-05-09T08:19:38.343Z,52.45
2018-05-09T08:20:38.591Z,53.03
2018-05-09T08:21:38.816Z,52.43
2018-05-09T08:22:39.055Z,53.59
2018-05-09T08:23:39.285Z,53.59
2018-05-09T08:24:39.527Z,53.33
2018-05-09T08:25:39.765Z,52.36
2018-05-09T08:26:40.005Z,53.52
2018-05-09T08:27:40.236Z,53.52
2018-05-09T08:28:40.470Z,53.33
2018-05-09T08:29:41.618Z,53.25
2018-05-09T08:30:40.978Z,52.00
2018-05-09T08:31:41.220Z,52.09
2018-05-09T08:32:41.453Z,52.00
2018-05-09T08:33:41.699Z,51.61
2018-05-09T08:34:41.933Z,50.74
2018-05-09T08:35:42.156Z,50.35
2018-05-09T08:36:42.486Z,50.18
2018-05-09T08:37:42.644Z,51.25
2018-05-09T08:38:42.892Z,52.02
2018-05-09T08:39:43.122Z,52.31
2018-05-09T08:40:43.357Z,50.96
2018-05-09T08:41:43.589Z,51.06
2018-05-09T08:42:43.830Z,49.70
2018-05-09T08:43:44.170Z,50.38
2018-05-09T08:44:44.299Z,49.22
2018-05-09T08:45:44.544Z,50.38
2018-05-09T08:46:44.779Z,50.21
2018-05-09T08:47:45.017Z,52.24
2018-05-09T08:48:45.255Z,49.73
2018-05-09T08:49:45.502Z,49.34
2018-05-09T08:50:45.728Z,47.89
2018-05-09T08:51:45.968Z,47.99
2018-05-09T08:52:46.198Z,49.05
2018-05-09T08:53:46.434Z,47.50
2018-05-09T08:54:46.652Z,46.53
2018-05-09T08:55:46.899Z,47.31
2018-05-09T08:56:47.136Z,48.08
2018-05-09T08:57:47.371Z,46.83
2018-05-09T08:58:47.611Z,46.73
2018-05-09T08:59:47.847Z,46.44
2018-05-09T09:00:48.084Z,47.02
2018-05-09T09:01:48.321Z,47.91
2018-05-09T09:02:48.560Z,47.43
2018-05-09T09:03:48.794Z,46.94
2018-05-09T09:04:49.030Z,47.41
2018-05-09T09:05:49.269Z,45.95
2018-05-09T09:06:49.504Z,46.44
2018-05-09T09:07:49.738Z,47.21
2018-05-09T09:08:49.981Z,47.31
2018-05-09T09:09:50.224Z,48.66
2018-05-09T09:10:50.500Z,47.89
2018-05-09T09:11:50.691Z,47.21
2018-05-09T09:12:50.919Z,47.21
2018-05-09T09:13:51.161Z,47.21
2018-05-09T09:14:51.394Z,46.44
2018-05-09T09:15:51.635Z,47.41
2018-05-09T09:16:51.871Z,46.44
2018-05-09T09:17:52.105Z,47.41
2018-05-09T09:18:52.341Z,43.73
2018-05-09T09:19:52.579Z,44.02
2018-05-09T09:20:52.865Z,44.50
2018-05-09T09:21:53.056Z,43.54
2018-05-09T09:22:53.288Z,43.13
2018-05-09T09:23:53.520Z,44.50
2018-05-09T09:24:53.749Z,43.44
2018-05-09T09:25:53.990Z,43.90
2018-05-09T09:26:54.222Z,42.45
2018-05-09T09:27:54.459Z,43.92
2018-05-09T09:28:54.698Z,43.13
2018-05-09T09:29:54.932Z,44.57
2018-05-09T09:30:55.169Z,44.87
2018-05-09T09:31:55.406Z,43.71
2018-05-09T09:32:55.646Z,43.13
2018-05-09T09:33:55.881Z,43.23
2018-05-09T09:34:56.124Z,42.83
2018-05-09T09:35:56.354Z,43.71
2018-05-09T09:36:56.591Z,43.51
2018-05-09T09:37:56.829Z,44.21
2018-05-09T09:38:57.067Z,43.80
2018-05-09T09:39:57.309Z,43.32
2018-05-09T09:40:57.535Z,44.79
2018-05-09T09:41:57.772Z,43.13
2018-05-09T09:42:58.013Z,42.65
2018-05-09T09:43:58.249Z,43.80
2018-05-09T09:44:58.487Z,43.51
2018-05-09T09:45:58.722Z,43.90
2018-05-09T09:46:58.963Z,43.61
2018-05-09T09:47:59.196Z,43.92
2018-05-09T09:48:59.436Z,43.82
2018-05-09T09:49:59.673Z,44.67
2018-05-09T09:50:59.907Z,43.90
2018-05-09T09:52:00.148Z,44.09
2018-05-09T09:53:00.381Z,44.77
2018-05-09T09:54:00.619Z,45.57
2018-05-09T09:55:00.857Z,45.57
2018-05-09T09:56:01.099Z,44.40
2018-05-09T09:57:01.336Z,43.73
2018-05-09T09:58:01.569Z,43.82
2018-05-09T09:59:01.809Z,44.70
2018-05-09T10:00:02.045Z,43.92
2018-05-09T10:01:02.282Z,44.02
2018-05-09T10:02:02.517Z,43.63
2018-05-09T10:03:02.753Z,43.73
2018-05-09T10:04:02.990Z,44.02
2018-05-09T10:05:03.225Z,43.80
2018-05-09T10:06:03.462Z,43.92
2018-05-09T10:07:03.700Z,45.08
2018-05-09T10:08:04.017Z,44.12
2018-05-09T10:09:04.171Z,43.82
2018-05-09T10:10:04.410Z,43.92
2018-05-09T10:11:04.653Z,44.02
2018-05-09T10:12:04.887Z,44.31
2018-05-09T10:13:05.122Z,43.44
2018-05-09T10:14:05.365Z,43.82
2018-05-09T10:15:05.596Z,43.92
2018-05-09T10:16:05.840Z,43.63
2018-05-09T10:17:06.066Z,43.73
2018-05-09T10:18:06.302Z,42.88
2018-05-09T10:19:06.546Z,42.49
2018-05-09T10:20:06.777Z,43.07
2018-05-09T10:21:07.017Z,43.17
2018-05-09T10:22:07.258Z,43.65
2018-05-09T10:23:07.557Z,44.62
2018-05-09T10:24:07.730Z,43.37
2018-05-09T10:25:07.967Z,43.65
2018-05-09T10:26:08.205Z,43.65
2018-05-09T10:27:08.440Z,43.65
2018-05-09T10:28:08.679Z,44.04
2018-05-09T10:29:08.918Z,43.46
2018-05-09T10:30:09.159Z,44.13
2018-05-09T10:31:09.398Z,43.55
2018-05-09T10:32:09.635Z,43.65
2018-05-09T10:33:09.876Z,43.95
2018-05-09T10:34:10.114Z,44.60
2018-05-09T10:35:10.354Z,44.23
2018-05-09T10:36:10.594Z,43.54
2018-05-09T10:37:10.830Z,44.60
2018-05-09T10:38:11.069Z,44.33
2018-05-09T10:39:11.309Z,44.81
2018-05-09T10:40:11.545Z,44.81
2018-05-09T10:41:11.781Z,46.17
2018-05-09T10:42:12.018Z,44.33
2018-05-09T10:43:12.260Z,43.95
2018-05-09T10:44:12.497Z,43.96
2018-05-09T10:45:12.727Z,43.96
2018-05-09T10:46:12.970Z,43.77
2018-05-09T10:47:13.201Z,42.22
2018-05-09T10:48:13.440Z,42.80
2018-05-09T10:49:13.677Z,43.65
2018-05-09T10:50:13.914Z,43.27
2018-05-09T10:51:14.149Z,43.07
2018-05-09T10:52:14.386Z,43.85
2018-05-09T10:53:14.621Z,43.65
2018-05-09T10:54:14.859Z,44.04
2018-05-09T10:55:15.101Z,43.85
2018-05-09T10:56:15.373Z,43.75
2018-05-09T10:57:15.571Z,43.96
2018-05-09T10:58:15.799Z,44.23
2018-05-09T10:59:16.033Z,43.95
2018-05-09T11:00:16.274Z,43.46
2018-05-09T11:01:16.508Z,43.77
2018-05-09T11:02:16.745Z,44.26
2018-05-09T11:03:16.981Z,44.06
2018-05-09T11:04:17.219Z,44.93
2018-05-09T11:05:17.457Z,44.27
2018-05-09T11:06:17.693Z,43.02
2018-05-09T11:07:17.924Z,42.63
2018-05-09T11:08:18.174Z,42.34
2018-05-09T11:09:18.410Z,42.54
2018-05-09T11:10:18.646Z,42.24
2018-05-09T11:11:18.885Z,42.63
2018-05-09T11:12:19.123Z,42.72
2018-05-09T11:13:19.364Z,42.92
2018-05-09T11:14:19.599Z,42.44
2018-05-09T11:15:19.837Z,41.66
2018-05-09T11:16:20.076Z,41.37
2018-05-09T11:17:20.313Z,42.44
2018-05-09T11:18:20.552Z,41.17
2018-05-09T11:19:20.789Z,42.05
2018-05-09T11:20:21.024Z,41.86
2018-05-09T11:21:21.261Z,41.95
2018-05-09T11:22:21.500Z,41.17
2018-05-09T11:23:21.733Z,42.82
2018-05-09T11:24:22.011Z,42.94
2018-05-09T11:25:22.206Z,41.49
2018-05-09T11:26:22.446Z,42.85
2018-05-09T11:27:22.685Z,41.68
2018-05-09T11:28:22.927Z,41.10
2018-05-09T11:29:23.162Z,42.07
2018-05-09T11:30:23.402Z,42.54
2018-05-09T11:31:23.645Z,42.54
2018-05-09T11:32:23.879Z,42.82
2018-05-09T11:33:24.115Z,41.56
2018-05-09T11:34:24.355Z,41.16
2018-05-09T11:35:24.595Z,42.32
2018-05-09T11:36:24.896Z,42.71
2018-05-09T11:37:25.089Z,43.00
2018-05-09T11:38:25.312Z,42.80
2018-05-09T11:39:25.584Z,43.09
2018-05-09T11:40:25.788Z,43.09
2018-05-09T11:41:26.021Z,43.48
2018-05-09T11:42:26.263Z,42.51
2018-05-09T11:43:26.499Z,42.80
2018-05-09T11:44:26.742Z,42.51
2018-05-09T11:45:26.975Z,42.34
2018-05-09T11:46:27.210Z,43.12
2018-05-09T11:47:27.449Z,44.10
2018-05-09T11:48:27.682Z,44.10
2018-05-09T11:49:27.923Z,43.04
2018-05-09T11:50:28.164Z,42.65
2018-05-09T11:51:28.398Z,41.58
2018-05-09T11:52:28.639Z,41.97
2018-05-09T11:53:28.879Z,41.58
2018-05-09T11:54:29.119Z,42.94
2018-05-09T11:55:29.359Z,41.27
2018-05-09T11:56:29.601Z,41.47
2018-05-09T11:57:29.839Z,42.44
2018-05-09T11:58:30.079Z,43.21
2018-05-09T11:59:30.312Z,43.02
2018-05-09T12:00:30.559Z,42.61
2018-05-09T12:01:30.789Z,43.38
2018-05-09T12:02:31.094Z,42.71
2018-05-09T12:03:31.270Z,43.00
2018-05-09T12:04:31.511Z,43.77
2018-05-09T12:05:31.750Z,44.06
2018-05-09T12:06:31.993Z,44.45
2018-05-09T12:07:32.228Z,44.26
2018-05-09T12:08:32.465Z,44.16
2018-05-09T12:09:32.699Z,43.96
2018-05-09T12:10:33.140Z,45.22
2018-05-09T12:11:33.180Z,44.54
2018-05-09T12:12:33.414Z,44.37
2018-05-09T12:13:33.651Z,44.37
2018-05-09T12:14:33.890Z,44.01
2018-05-09T12:15:34.123Z,42.26
2018-05-09T12:16:34.399Z,43.91
2018-05-09T12:17:34.598Z,42.07
2018-05-09T12:18:34.837Z,42.07
2018-05-09T12:19:35.073Z,42.17
2018-05-09T12:20:35.314Z,43.13
2018-05-09T12:21:35.551Z,42.85
2018-05-09T12:22:35.796Z,44.01
2018-05-09T12:23:36.031Z,43.31
2018-05-09T12:24:36.338Z,43.89
2018-05-09T12:25:36.511Z,43.70
2018-05-09T12:26:36.743Z,42.72
2018-05-09T12:27:36.982Z,42.26
2018-05-09T12:28:37.224Z,43.72
2018-05-09T12:29:37.464Z,43.72
2018-05-09T12:30:37.702Z,42.46
2018-05-09T12:31:37.941Z,41.20
2018-05-09T12:32:38.179Z,41.39
2018-05-09T12:33:38.417Z,41.30
2018-05-09T12:34:38.653Z,41.41
2018-05-09T12:35:38.914Z,43.26
2018-05-09T12:36:39.137Z,41.51
2018-05-09T12:37:39.381Z,40.46
2018-05-09T12:38:39.626Z,39.88
2018-05-09T12:39:39.862Z,39.80
2018-05-09T12:40:40.099Z,39.70
2018-05-09T12:41:40.340Z,38.75
2018-05-09T12:42:40.577Z,40.11
2018-05-09T12:43:40.812Z,39.72
2018-05-09T12:44:41.050Z,38.29
2018-05-09T12:45:41.284Z,38.65
2018-05-09T12:46:41.525Z,40.21
2018-05-09T12:47:41.766Z,38.17
2018-05-09T12:48:42.050Z,38.07
2018-05-09T12:49:42.242Z,38.75
2018-05-09T12:50:42.486Z,39.03
2018-05-09T12:51:42.724Z,40.39
2018-05-09T12:52:42.965Z,40.00
2018-05-09T12:53:43.205Z,39.59
2018-05-09T12:54:43.444Z,39.29
2018-05-09T12:55:43.681Z,40.44